createdAt,value
2019-04-25T00:00:58.875Z,15.90
2019-04-25T00:03:31.912Z,15.90
2019-04-25T00:06:02.391Z,15.90
2019-04-25T00:08:45.122Z,15.80
2019-04-25T00:11:27.315Z,15.80
2019-04-25T00:13:57.622Z,15.80
2019-04-25T00:16:29.332Z,15.80
2019-04-25T00:18:59.410Z,15.70
2019-04-25T00:21:31.784Z,15.70
2019-04-25T00:24:04.669Z,15.70
2019-04-25T00:26:48.569Z,15.60
2019-04-25T00:29:18.852Z,15.70
2019-04-25T00:31:49.307Z,15.70
2019-04-25T00:34:19.348Z,15.70
2019-04-25T00:36:49.654Z,15.70
2019-04-25T00:39:19.836Z,15.70
2019-04-25T00:41:50.251Z,15.60
2019-04-25T00:44:22.000Z,15.60
2019-04-25T00:46:56.622Z,15.50
2019-04-25T00:49:26.063Z,15.50
2019-04-25T00:51:56.251Z,15.50
2019-04-25T00:54:26.698Z,15.40
2019-04-25T00:56:57.008Z,15.40
2019-04-25T00:59:45.180Z,15.40
2019-04-25T01:02:21.340Z,15.40
2019-04-25T01:04:52.141Z,15.30
2019-04-25T01:07:23.518Z,15.30
2019-04-25T01:09:54.554Z,15.30
2019-04-25T01:12:26.594Z,15.20
2019-04-25T01:14:57.043Z,15.30
2019-04-25T01:17:27.227Z,15.40
2019-04-25T01:19:58.083Z,15.30
2019-04-25T01:22:28.413Z,15.30
2019-04-25T01:24:58.556Z,15.30
2019-04-25T01:27:28.761Z,15.30
2019-04-25T01:29:59.038Z,15.20
2019-04-25T01:32:30.855Z,15.20
2019-04-25T01:35:04.022Z,15.20
2019-04-25T01:37:38.845Z,15.10
2019-04-25T01:40:14.165Z,15.00
2019-04-25T01:42:45.860Z,15.10
2019-04-25T01:45:16.301Z,15.00
2019-04-25T01:47:48.880Z,14.90
2019-04-25T01:50:20.679Z,14.80
2019-04-25T01:52:50.565Z,14.80
2019-04-25T01:55:20.671Z,14.80
2019-04-25T01:57:50.918Z,14.70
2019-04-25T02:00:23.630Z,14.60
2019-04-25T02:02:54.904Z,14.70
2019-04-25T02:05:25.705Z,14.80
2019-04-25T02:07:55.897Z,14.80
2019-04-25T02:10:26.249Z,14.80
2019-04-25T02:13:00.844Z,14.80
2019-04-25T02:15:33.465Z,14.70
2019-04-25T02:18:03.895Z,14.70
2019-04-25T02:20:34.003Z,14.70
2019-04-25T02:23:04.613Z,14.60
2019-04-25T02:25:34.601Z,14.60
2019-04-25T02:28:05.658Z,14.60
2019-04-25T02:30:36.004Z,14.60
2019-04-25T02:33:08.888Z,14.70
2019-04-25T02:35:38.092Z,14.70
2019-04-25T02:38:09.066Z,14.70
2019-04-25T02:40:39.532Z,14.70
2019-04-25T02:43:09.720Z,14.60
2019-04-25T02:46:10.502Z,14.50
2019-04-25T02:48:48.414Z,14.60
2019-04-25T02:51:38.590Z,14.50
2019-04-25T02:54:08.962Z,14.50
2019-04-25T02:56:39.288Z,14.50
2019-04-25T02:59:09.460Z,14.50
2019-04-25T03:01:39.545Z,14.50
2019-04-25T03:04:11.377Z,14.50
2019-04-25T03:06:41.742Z,14.50
2019-04-25T03:09:15.120Z,14.40
2019-04-25T03:11:45.116Z,14.40
2019-04-25T03:14:16.208Z,14.40
2019-04-25T03:16:46.474Z,14.40
2019-04-25T03:19:18.201Z,14.40
2019-04-25T03:21:59.698Z,14.40
2019-04-25T03:24:30.542Z,14.40
2019-04-25T03:27:00.878Z,14.30
2019-04-25T03:29:31.047Z,14.30
2019-04-25T03:32:02.694Z,14.30
2019-04-25T03:34:35.114Z,14.40
2019-04-25T03:37:06.225Z,14.60
2019-04-25T03:39:36.933Z,14.60
2019-04-25T03:42:07.815Z,14.60
2019-04-25T03:44:38.087Z,14.50
2019-04-25T03:47:08.666Z,14.40
2019-04-25T03:49:39.206Z,14.30
2019-04-25T03:52:10.110Z,14.30
2019-04-25T03:54:40.422Z,14.30
2019-04-25T03:57:10.530Z,14.30
2019-04-25T03:59:41.151Z,14.30
2019-04-25T04:02:11.401Z,14.20
2019-04-25T04:04:43.400Z,14.20
2019-04-25T04:07:14.700Z,14.20
2019-04-25T04:09:45.258Z,14.10
2019-04-25T04:12:15.730Z,14.10
2019-04-25T04:14:45.897Z,14.00
2019-04-25T04:17:17.523Z,14.00
2019-04-25T04:19:55.176Z,14.00
2019-04-25T04:22:38.795Z,13.90
2019-04-25T04:25:11.588Z,13.90
2019-04-25T04:27:41.776Z,13.90
2019-04-25T04:30:12.127Z,14.00
2019-04-25T04:32:44.053Z,14.00
2019-04-25T04:35:15.135Z,14.00
2019-04-25T04:37:45.747Z,13.90
2019-04-25T04:40:17.308Z,14.00
2019-04-25T04:42:49.685Z,13.90
2019-04-25T04:45:19.981Z,13.90
2019-04-25T04:47:49.933Z,13.90
2019-04-25T04:50:20.143Z,13.90
2019-04-25T04:52:50.274Z,13.90
2019-04-25T04:55:20.421Z,13.90
2019-04-25T04:57:50.634Z,13.80
2019-04-25T05:00:21.465Z,13.80
2019-04-25T05:03:02.421Z,13.80
2019-04-25T05:05:40.134Z,13.80
2019-04-25T05:08:12.978Z,13.80
2019-04-25T05:10:49.357Z,13.70
2019-04-25T05:13:19.788Z,13.70
2019-04-25T05:15:50.131Z,13.70
2019-04-25T05:18:32.997Z,13.80
2019-04-25T05:20:51.850Z,13.90
2019-04-25T05:23:23.036Z,13.90
2019-04-25T05:25:55.655Z,13.90
2019-04-25T05:28:25.422Z,13.90
2019-04-25T05:30:59.880Z,14.00
2019-04-25T05:33:30.170Z,14.20
2019-04-25T05:36:00.290Z,14.20
2019-04-25T05:38:30.396Z,14.20
2019-04-25T05:41:04.964Z,14.40
2019-04-25T05:43:35.102Z,14.50
2019-04-25T05:46:05.544Z,14.70
2019-04-25T05:48:35.737Z,14.70
2019-04-25T05:51:05.831Z,14.80
2019-04-25T05:53:35.990Z,14.80
2019-04-25T05:56:06.102Z,14.90
2019-04-25T05:58:36.384Z,14.90
2019-04-25T06:01:06.632Z,14.80
2019-04-25T06:03:36.989Z,14.70
2019-04-25T06:06:07.226Z,14.50
2019-04-25T06:08:39.039Z,14.40
2019-04-25T06:11:10.843Z,14.40
2019-04-25T06:13:45.284Z,14.90
2019-04-25T06:16:23.675Z,15.90
2019-04-25T06:19:14.081Z,16.60
2019-04-25T06:21:38.739Z,17.40
2019-04-25T06:24:16.435Z,18.00
2019-04-25T06:26:51.085Z,18.70
2019-04-25T06:29:21.807Z,19.00
2019-04-25T06:32:04.246Z,18.90
2019-04-25T06:34:26.764Z,19.00
2019-04-25T06:36:55.666Z,18.80
2019-04-25T06:39:26.367Z,19.00
2019-04-25T06:41:56.579Z,19.30
2019-04-25T06:44:31.451Z,19.30
2019-04-25T06:47:06.260Z,19.70
2019-04-25T06:49:38.219Z,19.50
2019-04-25T06:52:08.462Z,18.80
2019-04-25T06:54:39.015Z,18.60
2019-04-25T06:57:09.220Z,18.60
2019-04-25T06:59:41.426Z,19.20
2019-04-25T07:02:11.425Z,19.90
2019-04-25T07:04:41.395Z,20.10
2019-04-25T07:07:13.089Z,20.10
2019-04-25T07:09:43.397Z,20.10
2019-04-25T07:12:14.250Z,20.10
2019-04-25T07:14:44.463Z,20.30
2019-04-25T07:17:14.492Z,20.10
2019-04-25T07:19:44.518Z,19.70
2019-04-25T07:22:15.528Z,19.60
2019-04-25T07:24:45.789Z,19.60
2019-04-25T07:27:17.401Z,19.00
2019-04-25T07:30:05.441Z,18.60
2019-04-25T07:32:43.971Z,18.00
2019-04-25T07:35:14.302Z,17.60
2019-04-25T07:37:44.497Z,17.40
2019-04-25T07:40:15.396Z,17.70
2019-04-25T07:42:45.753Z,17.60
2019-04-25T07:45:16.562Z,17.60
2019-04-25T07:47:46.713Z,17.90
2019-04-25T07:50:17.763Z,18.30
2019-04-25T07:52:47.747Z,18.40
2019-04-25T07:55:17.859Z,18.00
2019-04-25T07:57:47.905Z,18.60
2019-04-25T08:00:18.818Z,19.30
2019-04-25T08:02:48.893Z,20.10
2019-04-25T08:05:18.927Z,20.80
2019-04-25T08:07:49.017Z,21.30
2019-04-25T08:10:20.189Z,21.30
2019-04-25T08:12:53.508Z,21.10
2019-04-25T08:15:43.344Z,21.50
2019-04-25T08:18:13.942Z,22.30
2019-04-25T08:20:46.546Z,22.80
2019-04-25T08:23:15.817Z,22.60
2019-04-25T08:25:45.941Z,23.00
2019-04-25T08:28:16.164Z,23.10
2019-04-25T08:30:46.382Z,22.90
2019-04-25T08:33:16.492Z,22.30
2019-04-25T08:36:03.612Z,22.40
2019-04-25T08:38:18.489Z,22.80
2019-04-25T08:40:48.812Z,22.90
2019-04-25T08:43:18.848Z,23.60
2019-04-25T08:45:48.877Z,23.60
2019-04-25T08:48:18.773Z,23.90
2019-04-25T08:50:50.335Z,23.90
2019-04-25T08:53:21.903Z,24.10
2019-04-25T08:55:54.007Z,23.10
2019-04-25T08:58:35.396Z,23.20
2019-04-25T09:01:23.659Z,23.40
2019-04-25T09:04:10.550Z,23.20
2019-04-25T09:06:40.783Z,23.90
2019-04-25T09:09:10.779Z,24.00
2019-04-25T09:11:41.373Z,24.40
2019-04-25T09:14:11.598Z,24.40
2019-04-25T09:16:43.934Z,24.50
2019-04-25T09:19:14.268Z,24.70
2019-04-25T09:21:48.051Z,25.00
2019-04-25T09:24:15.935Z,25.40
2019-04-25T09:26:46.067Z,25.10
2019-04-25T09:29:19.625Z,24.30
2019-04-25T09:31:47.924Z,24.60
2019-04-25T09:34:18.278Z,23.80
2019-04-25T09:36:48.187Z,23.70
2019-04-25T09:39:29.742Z,24.00
2019-04-25T09:41:59.681Z,24.20
2019-04-25T09:44:46.670Z,24.60
2019-04-25T09:47:16.927Z,25.30
2019-04-25T09:49:48.304Z,25.70
2019-04-25T09:52:20.162Z,26.00
2019-04-25T09:54:53.445Z,25.60
2019-04-25T09:57:25.322Z,25.10
2019-04-25T09:59:56.888Z,25.20
2019-04-25T10:02:27.152Z,25.70
2019-04-25T10:04:57.420Z,25.90
2019-04-25T10:07:27.550Z,26.20
2019-04-25T10:09:57.568Z,26.40
2019-04-25T10:12:27.700Z,26.10
2019-04-25T10:15:16.008Z,25.80
2019-04-25T10:17:46.255Z,25.90
2019-04-25T10:20:19.057Z,25.70
2019-04-25T10:22:49.264Z,25.60
2019-04-25T10:25:19.908Z,25.10
2019-04-25T10:27:50.111Z,25.10
2019-04-25T10:30:23.550Z,25.70
2019-04-25T10:32:54.392Z,25.90
2019-04-25T10:35:24.329Z,26.10
2019-04-25T10:37:55.048Z,26.20
2019-04-25T10:40:25.660Z,26.50
2019-04-25T10:42:55.847Z,26.00
2019-04-25T10:45:26.204Z,25.80
2019-04-25T10:47:56.664Z,25.30
2019-04-25T10:50:26.864Z,25.60
2019-04-25T10:52:56.959Z,25.40
2019-04-25T10:55:27.914Z,24.80
2019-04-25T10:57:58.126Z,24.80
2019-04-25T11:00:35.947Z,25.00
2019-04-25T11:03:26.519Z,25.20
2019-04-25T11:05:57.164Z,25.00
2019-04-25T11:08:27.216Z,24.80
2019-04-25T11:10:58.626Z,24.50
2019-04-25T11:13:28.870Z,24.50
2019-04-25T11:16:11.362Z,24.70
2019-04-25T11:18:45.003Z,24.90
2019-04-25T11:21:14.690Z,24.50
2019-04-25T11:23:47.659Z,24.70
2019-04-25T11:26:16.678Z,24.60
2019-04-25T11:28:46.796Z,23.90
2019-04-25T11:31:18.454Z,23.80
2019-04-25T11:33:48.693Z,24.10
2019-04-25T11:36:18.804Z,24.30
2019-04-25T11:39:09.003Z,24.00
2019-04-25T11:41:39.278Z,24.30
2019-04-25T11:44:09.519Z,24.70
2019-04-25T11:46:39.753Z,24.60
2019-04-25T11:49:10.039Z,23.90
2019-04-25T11:51:40.289Z,23.50
2019-04-25T11:54:10.295Z,22.80
2019-04-25T11:56:40.545Z,23.10
2019-04-25T11:59:10.733Z,22.70
2019-04-25T12:01:40.900Z,22.50
2019-04-25T12:04:10.991Z,22.40
2019-04-25T12:06:41.121Z,22.50
2019-04-25T12:09:11.169Z,23.00
2019-04-25T12:11:41.185Z,23.10
2019-04-25T12:14:11.442Z,22.50
2019-04-25T12:16:41.626Z,22.50
2019-04-25T12:19:11.639Z,22.80
2019-04-25T12:21:41.839Z,23.40
2019-04-25T12:24:13.557Z,23.50
2019-04-25T12:26:46.099Z,23.80
2019-04-25T12:29:15.531Z,23.90
2019-04-25T12:31:46.488Z,24.00
2019-04-25T12:34:17.505Z,24.00
2019-04-25T12:36:48.402Z,24.10
2019-04-25T12:39:18.890Z,23.80
2019-04-25T12:41:50.415Z,23.60
2019-04-25T12:44:24.984Z,24.00
2019-04-25T12:46:57.067Z,24.30
2019-04-25T12:49:27.172Z,23.90
2019-04-25T12:51:57.454Z,23.20
2019-04-25T12:54:27.691Z,23.10
2019-04-25T12:56:58.058Z,23.20
2019-04-25T12:59:28.843Z,23.10
2019-04-25T13:01:58.968Z,22.70
2019-04-25T13:04:29.139Z,22.90
2019-04-25T13:06:59.446Z,23.30
2019-04-25T13:09:29.783Z,24.00
2019-04-25T13:11:59.789Z,23.80
2019-04-25T13:14:29.772Z,24.00
2019-04-25T13:16:59.941Z,23.90
2019-04-25T13:19:29.813Z,23.60
2019-04-25T13:22:01.016Z,23.60
2019-04-25T13:24:31.228Z,23.30
2019-04-25T13:27:04.395Z,23.40
2019-04-25T13:30:05.574Z,23.70
2019-04-25T13:32:55.535Z,24.00
2019-04-25T13:35:34.446Z,23.80
2019-04-25T13:38:04.490Z,23.80
2019-04-25T13:40:34.606Z,23.50
2019-04-25T13:43:05.262Z,23.50
2019-04-25T13:45:36.495Z,23.60
2019-04-25T13:48:06.807Z,23.90
2019-04-25T13:50:37.061Z,24.10
2019-04-25T13:53:07.174Z,24.10
2019-04-25T13:55:37.492Z,24.00
2019-04-25T13:58:07.820Z,24.10
2019-04-25T14:00:38.024Z,24.20
2019-04-25T14:03:08.555Z,24.30
2019-04-25T14:05:38.797Z,24.20
2019-04-25T14:08:09.230Z,24.10
2019-04-25T14:10:40.329Z,24.10
2019-04-25T14:13:10.870Z,23.90
2019-04-25T14:15:43.130Z,24.20
2019-04-25T14:18:18.810Z,24.30
2019-04-25T14:20:56.616Z,24.30
2019-04-25T14:23:27.404Z,24.40
2019-04-25T14:25:58.186Z,24.30
2019-04-25T14:28:30.517Z,24.30
2019-04-25T14:31:01.035Z,24.00
2019-04-25T14:33:31.536Z,24.10
2019-04-25T14:36:03.191Z,24.10
2019-04-25T14:38:33.920Z,24.20
2019-04-25T14:41:06.421Z,24.40
2019-04-25T14:43:36.504Z,24.50
2019-04-25T14:46:06.976Z,24.60
2019-04-25T14:48:37.191Z,24.50
2019-04-25T14:51:07.605Z,24.70
2019-04-25T14:53:37.623Z,24.70
2019-04-25T14:56:15.259Z,24.80
2019-04-25T14:58:44.498Z,24.70
2019-04-25T15:01:16.238Z,24.70
2019-04-25T15:03:46.298Z,24.40
2019-04-25T15:06:16.310Z,24.30
2019-04-25T15:08:46.547Z,24.10
2019-04-25T15:11:16.542Z,24.00
2019-04-25T15:13:46.702Z,24.20
2019-04-25T15:16:16.519Z,24.20
2019-04-25T15:18:47.192Z,24.30
2019-04-25T15:21:18.718Z,24.10
2019-04-25T15:23:59.606Z,23.90
2019-04-25T15:26:20.802Z,23.90
2019-04-25T15:28:50.878Z,24.00
2019-04-25T15:31:20.883Z,24.10
2019-04-25T15:33:50.943Z,24.20
2019-04-25T15:36:22.581Z,24.30
2019-04-25T15:38:57.007Z,24.20
2019-04-25T15:41:31.319Z,24.20
2019-04-25T15:44:19.251Z,24.10
2019-04-25T15:46:53.961Z,24.30
2019-04-25T15:49:24.362Z,24.10
2019-04-25T15:51:55.331Z,24.00
2019-04-25T15:54:26.377Z,24.10
2019-04-25T15:56:56.667Z,24.10
2019-04-25T15:59:27.423Z,24.00
2019-04-25T16:04:28.966Z,24.00
2019-04-25T16:06:59.182Z,24.00
2019-04-25T16:09:29.764Z,23.80
2019-04-25T16:12:02.123Z,23.60
2019-04-25T16:14:32.000Z,23.60
2019-04-25T16:17:02.050Z,23.50
2019-04-25T16:19:32.267Z,23.60
2019-04-25T16:22:02.180Z,23.40
2019-04-25T16:24:32.334Z,23.40
2019-04-25T16:27:02.805Z,23.30
2019-04-25T16:29:34.184Z,23.30
2019-04-25T16:32:05.946Z,23.30
2019-04-25T16:34:36.051Z,23.10
2019-04-25T16:37:06.103Z,23.20
2019-04-25T16:39:36.198Z,23.00
2019-04-25T16:42:06.257Z,22.90
2019-04-25T16:44:36.306Z,22.80
2019-04-25T16:47:08.723Z,22.80
2019-04-25T16:49:39.139Z,22.80
2019-04-25T16:52:11.965Z,22.80
2019-04-25T16:54:42.669Z,22.80
2019-04-25T16:57:12.893Z,22.80
2019-04-25T16:59:43.216Z,22.70
2019-04-25T17:02:13.809Z,22.70
2019-04-25T17:04:43.890Z,22.60
2019-04-25T17:07:14.206Z,22.60
2019-04-25T17:09:44.386Z,22.60
2019-04-25T17:12:14.769Z,22.60
2019-04-25T17:14:58.819Z,22.50
2019-04-25T17:17:49.004Z,22.40
2019-04-25T17:20:21.075Z,22.40
2019-04-25T17:22:52.249Z,22.40
2019-04-25T17:25:22.799Z,22.30
2019-04-25T17:27:53.069Z,22.30
2019-04-25T17:30:23.465Z,22.40
2019-04-25T17:33:01.069Z,22.50
2019-04-25T17:35:49.309Z,22.50
2019-04-25T17:38:39.838Z,22.50
2019-04-25T17:41:10.110Z,22.50
2019-04-25T17:43:41.927Z,22.40
2019-04-25T17:46:13.647Z,22.10
2019-04-25T17:48:43.735Z,22.10
2019-04-25T17:51:13.834Z,22.00
2019-04-25T17:53:43.911Z,21.90
2019-04-25T17:56:13.880Z,21.80
2019-04-25T17:58:44.016Z,21.80
2019-04-25T18:01:15.656Z,21.60
2019-04-25T18:03:45.738Z,21.40
2019-04-25T18:06:15.820Z,21.40
2019-04-25T18:08:45.758Z,21.20
2019-04-25T18:11:15.992Z,21.10
2019-04-25T18:13:46.116Z,21.00
2019-04-25T18:16:17.975Z,20.80
2019-04-25T18:18:49.627Z,20.70
2019-04-25T18:21:19.998Z,20.60
2019-04-25T18:24:06.343Z,20.60
2019-04-25T18:26:54.445Z,20.50
2019-04-25T18:29:27.869Z,20.30
2019-04-25T18:31:57.972Z,20.20
2019-04-25T18:34:42.265Z,19.90
2019-04-25T18:37:16.681Z,19.80
2019-04-25T18:39:54.368Z,19.70
2019-04-25T18:42:42.239Z,19.60
2019-04-25T18:45:14.086Z,19.50
2019-04-25T18:47:44.582Z,19.40
2019-04-25T18:50:16.533Z,19.30
2019-04-25T18:52:48.161Z,19.30
2019-04-25T18:55:22.506Z,19.10
2019-04-25T18:57:54.277Z,18.90
2019-04-25T19:00:41.639Z,18.80
2019-04-25T19:03:22.514Z,18.70
2019-04-25T19:05:58.086Z,18.60
2019-04-25T19:08:28.386Z,18.50
2019-04-25T19:10:58.459Z,18.30
2019-04-25T19:13:28.591Z,18.30
2019-04-25T19:15:58.621Z,18.30
2019-04-25T19:18:28.709Z,18.10
2019-04-25T19:20:58.885Z,17.90
2019-04-25T19:23:29.242Z,17.90
2019-04-25T19:25:59.328Z,17.80
2019-04-25T19:28:29.803Z,17.60
2019-04-25T19:30:59.728Z,17.60
2019-04-25T19:33:35.889Z,17.50
2019-04-25T19:36:01.476Z,17.40
2019-04-25T19:38:31.662Z,17.30
2019-04-25T19:41:09.692Z,17.20
2019-04-25T19:43:44.616Z,17.20
2019-04-25T19:46:14.710Z,17.10
2019-04-25T19:48:46.913Z,17.00
2019-04-25T19:51:16.680Z,17.00
2019-04-25T19:53:47.080Z,17.00
2019-04-25T19:56:17.382Z,16.90
2019-04-25T19:58:47.408Z,16.80
2019-04-25T20:01:17.808Z,16.60
2019-04-25T20:03:56.431Z,16.60
2019-04-25T20:06:25.890Z,16.50
2019-04-25T20:08:57.583Z,16.50
2019-04-25T20:11:29.348Z,16.50
2019-04-25T20:13:59.477Z,16.40
2019-04-25T20:16:31.113Z,16.20
2019-04-25T20:19:01.353Z,16.20
2019-04-25T20:21:31.314Z,16.20
2019-04-25T20:24:02.030Z,16.10
2019-04-25T20:26:32.031Z,16.10
2019-04-25T20:29:02.257Z,16.00
2019-04-25T20:31:32.568Z,16.00
2019-04-25T20:34:06.053Z,15.80
2019-04-25T20:36:34.334Z,15.80
2019-04-25T20:39:06.448Z,15.70
2019-04-25T20:41:36.546Z,15.70
2019-04-25T20:44:06.538Z,15.60
2019-04-25T20:46:36.899Z,15.60
2019-04-25T20:49:06.854Z,15.60
2019-04-25T20:51:37.143Z,15.50
2019-04-25T20:54:07.287Z,15.50
2019-04-25T20:56:37.810Z,15.50
2019-04-25T20:59:07.807Z,15.40
2019-04-25T21:01:38.049Z,15.40
2019-04-25T21:04:13.398Z,15.40
2019-04-25T21:06:41.582Z,15.30
2019-04-25T21:09:12.189Z,15.30
2019-04-25T21:11:42.450Z,15.30
2019-04-25T21:14:14.426Z,15.20
2019-04-25T21:16:46.369Z,15.20
2019-04-25T21:19:30.515Z,15.20
2019-04-25T21:22:01.058Z,15.20
2019-04-25T21:24:31.240Z,15.20
2019-04-25T21:27:01.332Z,15.30
2019-04-25T21:29:31.599Z,15.30
2019-04-25T21:32:02.122Z,15.30
2019-04-25T21:34:32.163Z,15.30
2019-04-25T21:37:03.088Z,15.30
2019-04-25T21:39:35.567Z,15.30
2019-04-25T21:42:16.546Z,15.20
2019-04-25T21:44:46.659Z,15.30
2019-04-25T21:47:16.877Z,15.20
2019-04-25T21:49:47.218Z,15.20
2019-04-25T21:52:17.248Z,15.20
2019-04-25T21:54:48.697Z,15.20
2019-04-25T21:57:19.214Z,15.20
2019-04-25T21:59:59.059Z,15.10
2019-04-25T22:02:23.030Z,15.10
2019-04-25T22:04:54.136Z,15.10
2019-04-25T22:07:25.423Z,15.10
2019-04-25T22:09:56.916Z,15.10
2019-04-25T22:13:18.764Z,15.10
2019-04-25T22:15:49.532Z,15.00
2019-04-25T22:18:19.881Z,15.10
2019-04-25T22:20:50.417Z,15.00
2019-04-25T22:23:21.897Z,15.00
2019-04-25T22:25:52.067Z,15.00
2019-04-25T22:28:22.678Z,15.00
2019-04-25T22:30:54.831Z,14.90
2019-04-25T22:33:26.825Z,14.90
2019-04-25T22:35:59.211Z,14.90
2019-04-25T22:38:30.240Z,14.90
2019-04-25T22:43:44.212Z,14.80
2019-04-25T22:46:25.454Z,14.90
2019-04-25T22:48:49.362Z,14.80
2019-04-25T22:51:19.583Z,14.80
2019-04-25T22:53:49.803Z,14.80
2019-04-25T22:56:20.039Z,14.90
2019-04-25T22:58:50.265Z,14.90
2019-04-25T23:01:22.264Z,14.90
2019-04-25T23:04:10.076Z,14.90
2019-04-25T23:06:42.035Z,14.90
2019-04-25T23:09:12.389Z,15.00
2019-04-25T23:11:42.519Z,15.00
2019-04-25T23:14:13.080Z,15.00
2019-04-25T23:16:44.937Z,15.00
2019-04-25T23:19:14.981Z,15.00
2019-04-25T23:21:45.454Z,15.00
2019-04-25T23:24:18.816Z,15.10
2019-04-25T23:27:03.690Z,15.10
2019-04-25T23:29:34.680Z,15.10
2019-04-25T23:32:05.654Z,15.20
2019-04-25T23:34:36.603Z,15.10
2019-04-25T23:37:07.136Z,15.20
2019-04-25T23:39:37.549Z,15.30
2019-04-25T23:42:07.783Z,15.30
2019-04-25T23:44:38.206Z,15.30
2019-04-25T23:47:08.309Z,15.50
2019-04-25T23:49:38.437Z,15.50
2019-04-25T23:52:08.776Z,15.50
2019-04-25T23:54:38.843Z,15.50
2019-04-25T23:57:09.432Z,15.60
2019-04-25T23:59:39.752Z,15.60
